createdAt,value
2022-08-21T00:00:44.282Z,18.18
2022-08-21T00:03:13.773Z,18.24
2022-08-21T00:05:47.751Z,18.23
2022-08-21T00:08:16.018Z,18.15
2022-08-21T00:10:45.654Z,18.17
2022-08-21T00:13:18.660Z,18.11
2022-08-21T00:15:50.016Z,18.12
2022-08-21T00:18:18.949Z,18.16
2022-08-21T00:20:48.495Z,18.20
2022-08-21T00:23:16.882Z,18.15
2022-08-21T00:25:46.251Z,18.08
2022-08-21T00:28:14.723Z,18.07
2022-08-21T00:30:44.351Z,18.11
2022-08-21T00:33:14.592Z,18.14
2022-08-21T00:35:44.874Z,18.04
2022-08-21T00:38:13.158Z,17.99
2022-08-21T00:40:44.265Z,17.99
2022-08-21T00:43:14.995Z,17.96
2022-08-21T00:45:43.313Z,17.88
2022-08-21T00:48:11.532Z,17.81
2022-08-21T00:50:45.269Z,17.81
2022-08-21T00:53:14.330Z,17.70
2022-08-21T00:55:43.824Z,17.70
2022-08-21T00:58:15.123Z,17.66
2022-08-21T01:00:48.502Z,17.69
2022-08-21T01:03:23.716Z,17.65
2022-08-21T01:05:55.122Z,17.55
2022-08-21T01:08:24.324Z,17.56
2022-08-21T01:10:54.613Z,17.48
2022-08-21T01:13:28.526Z,17.51
2022-08-21T01:16:00.335Z,17.44
2022-08-21T01:18:29.403Z,17.34
2022-08-21T01:21:09.978Z,17.31
2022-08-21T01:23:43.901Z,17.27
2022-08-21T01:26:13.533Z,17.29
2022-08-21T01:28:52.524Z,17.31
2022-08-21T01:31:24.769Z,17.28
2022-08-21T01:33:55.393Z,17.24
2022-08-21T01:36:25.889Z,17.07
2022-08-21T01:38:54.137Z,17.10
2022-08-21T01:41:22.281Z,17.05
2022-08-21T01:43:51.104Z,16.94
2022-08-21T01:46:19.769Z,16.86
2022-08-21T01:48:50.913Z,16.80
2022-08-21T01:51:19.163Z,16.87
2022-08-21T01:53:48.883Z,16.79
2022-08-21T01:56:18.582Z,16.81
2022-08-21T01:58:49.109Z,16.86
2022-08-21T02:01:17.764Z,16.76
2022-08-21T02:03:45.944Z,16.74
2022-08-21T02:06:18.594Z,16.70
2022-08-21T02:08:48.883Z,16.65
2022-08-21T02:11:17.049Z,16.61
2022-08-21T02:13:45.299Z,16.58
2022-08-21T02:16:17.353Z,16.56
2022-08-21T02:18:48.273Z,16.60
2022-08-21T02:21:16.655Z,16.55
2022-08-21T02:23:44.876Z,16.53
2022-08-21T02:26:14.974Z,16.58
2022-08-21T02:28:43.306Z,16.57
2022-08-21T02:31:12.240Z,16.55
2022-08-21T02:33:41.212Z,16.53
2022-08-21T02:36:11.769Z,16.50
2022-08-21T02:38:42.702Z,16.50
2022-08-21T02:41:14.699Z,16.45
2022-08-21T02:43:44.426Z,16.37
2022-08-21T02:46:15.580Z,16.41
2022-08-21T02:48:44.374Z,16.39
2022-08-21T02:51:16.604Z,16.33
2022-08-21T02:53:44.994Z,16.33
2022-08-21T02:56:15.498Z,16.35
2022-08-21T02:58:47.666Z,16.24
2022-08-21T03:01:16.668Z,16.28
2022-08-21T03:03:47.309Z,16.26
2022-08-21T03:06:17.135Z,16.29
2022-08-21T03:08:46.314Z,16.24
2022-08-21T03:11:15.379Z,16.21
2022-08-21T03:13:45.707Z,16.22
2022-08-21T03:16:14.156Z,16.25
2022-08-21T03:18:42.197Z,16.21
2022-08-21T03:21:10.363Z,16.14
2022-08-21T03:23:40.748Z,16.18
2022-08-21T03:26:09.546Z,16.15
2022-08-21T03:28:37.579Z,16.03
2022-08-21T03:31:07.491Z,16.05
2022-08-21T03:33:35.724Z,16.09
2022-08-21T03:36:07.049Z,16.12
2022-08-21T03:38:37.122Z,16.13
2022-08-21T03:41:06.833Z,16.17
2022-08-21T03:43:37.401Z,16.22
2022-08-21T03:46:08.031Z,16.20
2022-08-21T03:48:38.086Z,16.22
2022-08-21T03:51:07.398Z,16.25
2022-08-21T03:53:37.144Z,16.24
2022-08-21T03:56:06.390Z,16.30
2022-08-21T03:58:34.937Z,16.28
2022-08-21T04:01:05.687Z,16.25
2022-08-21T04:03:37.920Z,16.26
2022-08-21T04:06:06.946Z,16.23
2022-08-21T04:08:37.553Z,16.17
2022-08-21T04:11:07.763Z,16.09
2022-08-21T04:13:36.246Z,16.02
2022-08-21T04:16:13.045Z,16.04
2022-08-21T04:18:43.401Z,16.10
2022-08-21T04:21:13.709Z,15.90
2022-08-21T04:23:42.447Z,15.91
2022-08-21T04:26:10.550Z,15.88
2022-08-21T04:28:38.802Z,15.98
2022-08-21T04:31:07.765Z,16.04
2022-08-21T04:33:36.389Z,16.13
2022-08-21T04:36:07.835Z,15.97
2022-08-21T04:38:37.395Z,16.04
2022-08-21T04:41:07.453Z,16.04
2022-08-21T04:43:36.054Z,16.06
2022-08-21T04:46:04.331Z,16.06
2022-08-21T04:48:33.688Z,16.02
2022-08-21T04:51:10.215Z,15.95
2022-08-21T04:53:41.318Z,15.97
2022-08-21T04:56:12.309Z,15.98
2022-08-21T04:58:43.457Z,16.07
2022-08-21T05:01:17.691Z,16.02
2022-08-21T05:03:46.883Z,16.12
2022-08-21T05:06:18.209Z,16.00
2022-08-21T05:08:49.640Z,16.19
2022-08-21T05:11:17.914Z,16.16
2022-08-21T05:13:46.270Z,16.09
2022-08-21T05:16:14.421Z,16.19
2022-08-21T05:19:02.534Z,16.19
2022-08-21T05:21:32.126Z,16.22
2022-08-21T05:24:02.051Z,16.30
2022-08-21T05:26:30.786Z,16.31
2022-08-21T05:28:59.162Z,16.34
2022-08-21T05:31:27.539Z,16.41
2022-08-21T05:33:55.976Z,16.37
2022-08-21T05:36:24.449Z,16.40
2022-08-21T05:38:54.033Z,16.13
2022-08-21T05:41:22.349Z,16.29
2022-08-21T05:43:50.469Z,16.35
2022-08-21T05:46:18.651Z,16.41
2022-08-21T05:48:46.823Z,16.55
2022-08-21T05:51:16.757Z,16.46
2022-08-21T05:53:45.650Z,16.64
2022-08-21T05:56:16.826Z,16.71
2022-08-21T05:58:45.325Z,16.65
2022-08-21T06:01:14.750Z,16.71
2022-08-21T06:03:44.060Z,16.75
2022-08-21T06:06:12.519Z,16.75
2022-08-21T06:08:40.748Z,16.75
2022-08-21T06:11:09.674Z,16.83
2022-08-21T06:13:40.061Z,16.78
2022-08-21T06:16:11.681Z,16.93
2022-08-21T06:18:45.128Z,17.01
2022-08-21T06:21:14.564Z,17.12
2022-08-21T06:23:43.361Z,17.20
2022-08-21T06:26:14.085Z,17.17
2022-08-21T06:28:44.852Z,17.27
2022-08-21T06:31:15.536Z,17.19
2022-08-21T06:33:43.856Z,17.39
2022-08-21T06:36:12.144Z,17.61
2022-08-21T06:38:41.022Z,17.60
2022-08-21T06:41:10.268Z,17.60
2022-08-21T06:43:40.002Z,17.50
2022-08-21T06:46:10.383Z,17.60
2022-08-21T06:48:38.689Z,17.55
2022-08-21T06:51:07.084Z,17.73
2022-08-21T06:53:35.716Z,17.77
2022-08-21T06:56:04.474Z,17.84
2022-08-21T06:58:33.148Z,17.89
2022-08-21T07:01:01.655Z,17.87
2022-08-21T07:03:37.699Z,17.91
2022-08-21T07:06:06.723Z,17.96
2022-08-21T07:08:34.963Z,18.01
2022-08-21T07:11:10.489Z,18.08
2022-08-21T07:13:38.698Z,18.27
2022-08-21T07:16:13.298Z,18.20
2022-08-21T07:18:43.405Z,18.14
2022-08-21T07:21:11.768Z,18.38
2022-08-21T07:24:00.423Z,18.33
2022-08-21T07:26:31.902Z,18.48
2022-08-21T07:29:00.308Z,18.41
2022-08-21T07:31:30.906Z,18.40
2022-08-21T07:34:13.027Z,18.64
2022-08-21T07:37:06.363Z,18.84
2022-08-21T07:40:06.722Z,18.68
2022-08-21T07:42:35.186Z,18.71
2022-08-21T07:45:03.408Z,18.96
2022-08-21T07:47:42.571Z,18.96
2022-08-21T07:50:13.599Z,18.82
2022-08-21T07:52:42.153Z,19.02
2022-08-21T07:55:13.299Z,18.94
2022-08-21T07:57:46.786Z,19.11
2022-08-21T08:00:22.162Z,19.22
2022-08-21T08:05:45.960Z,19.28
2022-08-21T08:08:17.623Z,19.10
2022-08-21T08:10:47.267Z,19.06
2022-08-21T08:13:30.158Z,19.12
2022-08-21T08:16:10.518Z,19.40
2022-08-21T08:18:56.108Z,19.31
2022-08-21T08:22:28.040Z,19.33
2022-08-21T08:28:28.763Z,19.55
2022-08-21T08:31:08.479Z,19.38
2022-08-21T08:48:06.648Z,19.73
2022-08-21T08:50:50.570Z,19.97
2022-08-21T08:53:24.940Z,20.04
2022-08-21T08:55:55.145Z,20.10
2022-08-21T08:58:29.756Z,20.01
2022-08-21T09:00:59.298Z,20.39
2022-08-21T09:03:30.907Z,20.08
2022-08-21T09:06:08.412Z,19.94
2022-08-21T09:09:05.508Z,19.94
2022-08-21T09:11:49.821Z,19.96
2022-08-21T09:14:30.778Z,20.07
2022-08-21T09:17:14.890Z,20.35
2022-08-21T09:20:01.056Z,20.05
2022-08-21T09:22:43.096Z,20.21
2022-08-21T09:25:24.799Z,20.39
2022-08-21T09:27:53.589Z,20.35
2022-08-21T09:30:29.051Z,20.24
2022-08-21T09:33:06.738Z,20.29
2022-08-21T11:43:46.321Z,22.80
2022-08-21T11:46:34.639Z,22.81
2022-08-21T11:49:48.467Z,23.13
2022-08-21T11:52:24.444Z,23.26
2022-08-21T11:55:09.543Z,23.09
2022-08-21T11:57:45.560Z,23.25
2022-08-21T12:29:53.906Z,24.07
2022-08-21T12:32:29.313Z,23.94
2022-08-21T12:39:50.109Z,24.11
2022-08-21T12:42:23.826Z,24.42
2022-08-21T12:44:58.072Z,24.50
2022-08-21T12:47:33.093Z,24.50
2022-08-21T12:50:07.791Z,24.33
2022-08-21T12:52:39.659Z,24.58
2022-08-21T12:55:09.669Z,24.44
2022-08-21T12:57:39.351Z,24.34
2022-08-21T13:00:17.077Z,24.45
2022-08-21T13:03:03.775Z,24.31
2022-08-21T13:05:41.556Z,24.58
2022-08-21T13:08:33.734Z,24.46
2022-08-21T13:11:47.268Z,24.51
2022-08-21T13:14:45.921Z,24.63
2022-08-21T13:17:23.379Z,24.76
2022-08-21T13:20:00.330Z,24.84
2022-08-21T13:22:33.995Z,24.94
2022-08-21T13:25:06.790Z,25.25
2022-08-21T13:27:36.602Z,25.12
2022-08-21T13:30:15.220Z,25.05
2022-08-21T13:32:54.622Z,24.91
2022-08-21T13:35:38.762Z,25.24
2022-08-21T13:38:13.117Z,24.97
2022-08-21T13:40:48.586Z,25.22
2022-08-21T13:43:35.746Z,25.09
2022-08-21T13:46:42.944Z,25.07
2022-08-21T13:49:25.721Z,25.16
2022-08-21T13:52:37.706Z,24.92
2022-08-21T13:55:35.147Z,25.04
2022-08-21T13:58:35.067Z,24.63
2022-08-21T14:01:12.437Z,24.60
2022-08-21T14:04:10.501Z,24.56
2022-08-21T14:06:46.558Z,24.57
2022-08-21T14:09:31.342Z,24.52
2022-08-21T14:12:44.003Z,24.56
2022-08-21T14:15:59.135Z,24.74
2022-08-21T14:18:37.380Z,24.51
2022-08-21T14:21:17.825Z,24.39
2022-08-21T14:25:16.036Z,24.28
2022-08-21T14:28:35.306Z,24.59
2022-08-21T14:31:27.142Z,24.55
2022-08-21T14:34:20.129Z,24.84
2022-08-21T14:40:42.135Z,24.75
2022-08-21T14:43:23.041Z,24.77
2022-08-21T14:46:31.450Z,24.83
2022-08-21T14:58:32.954Z,24.67
2022-08-21T15:01:25.285Z,24.50
2022-08-21T15:04:17.345Z,24.54
2022-08-21T15:06:59.609Z,24.64
2022-08-21T15:09:28.411Z,24.82
2022-08-21T15:12:02.088Z,24.87
2022-08-21T15:14:36.160Z,24.89
2022-08-21T15:17:18.601Z,24.89
2022-08-21T15:19:59.511Z,25.16
2022-08-21T15:22:29.642Z,24.94
2022-08-21T15:24:57.924Z,24.99
2022-08-21T15:27:29.853Z,25.37
2022-08-21T15:29:59.675Z,25.23
2022-08-21T15:32:31.620Z,25.03
2022-08-21T15:35:00.256Z,24.63
2022-08-21T15:37:28.420Z,24.83
2022-08-21T15:39:56.985Z,24.74
2022-08-21T15:42:27.723Z,24.67
2022-08-21T15:44:57.962Z,24.76
2022-08-21T15:47:34.528Z,24.68
2022-08-21T15:50:03.467Z,24.56
2022-08-21T15:52:31.540Z,24.50
2022-08-21T15:54:59.581Z,24.44
2022-08-21T15:57:28.351Z,24.66
2022-08-21T16:00:07.037Z,24.37
2022-08-21T16:02:45.114Z,24.37
2022-08-21T16:05:13.984Z,24.37
2022-08-21T16:07:42.407Z,24.32
2022-08-21T16:10:10.993Z,24.28
2022-08-21T16:12:44.563Z,24.18
2022-08-21T16:15:20.204Z,24.20
2022-08-21T16:17:51.747Z,24.38
2022-08-21T16:20:22.833Z,24.26
2022-08-21T16:22:51.078Z,24.40
2022-08-21T16:25:19.808Z,24.29
2022-08-21T16:27:52.621Z,24.28
2022-08-21T16:30:24.715Z,24.25
2022-08-21T16:33:18.523Z,24.18
2022-08-21T16:35:49.650Z,24.15
2022-08-21T16:38:17.802Z,24.37
2022-08-21T16:40:47.959Z,24.18
2022-08-21T16:43:19.719Z,24.27
2022-08-21T16:45:51.077Z,24.25
2022-08-21T16:48:20.792Z,24.47
2022-08-21T16:50:51.124Z,24.16
2022-08-21T16:53:19.517Z,24.19
2022-08-21T16:55:47.813Z,24.28
2022-08-21T16:58:20.652Z,24.18
2022-08-21T17:00:51.907Z,24.04
2022-08-21T17:03:39.057Z,24.14
2022-08-21T17:06:09.794Z,24.15
2022-08-21T17:08:38.842Z,24.17
2022-08-21T17:11:37.626Z,23.99
2022-08-21T17:14:14.134Z,23.85
2022-08-21T17:16:45.729Z,23.95
2022-08-21T17:19:17.286Z,23.99
2022-08-21T17:21:47.534Z,23.98
2022-08-21T17:24:17.373Z,23.86
2022-08-21T17:26:48.882Z,23.74
2022-08-21T17:29:19.471Z,23.67
2022-08-21T17:31:50.904Z,23.71
2022-08-21T17:34:26.228Z,23.83
2022-08-21T17:37:12.960Z,23.71
2022-08-21T17:39:43.040Z,23.58
2022-08-21T17:42:19.696Z,23.91
2022-08-21T17:44:49.650Z,23.90
2022-08-21T17:47:20.714Z,23.68
2022-08-21T17:49:50.284Z,23.69
2022-08-21T17:52:18.513Z,23.60
2022-08-21T17:54:46.786Z,23.47
2022-08-21T17:57:20.642Z,23.60
2022-08-21T17:59:58.360Z,23.59
2022-08-21T18:02:33.166Z,23.46
2022-08-21T18:05:14.012Z,23.35
2022-08-21T18:07:46.018Z,23.43
2022-08-21T18:10:15.016Z,23.33
2022-08-21T18:12:46.481Z,23.22
2022-08-21T18:15:21.489Z,23.34
2022-08-21T18:17:53.911Z,23.31
2022-08-21T18:20:25.969Z,23.22
2022-08-21T18:23:44.008Z,23.07
2022-08-21T18:26:23.428Z,23.07
2022-08-21T18:28:59.694Z,22.96
2022-08-21T18:31:29.549Z,23.06
2022-08-21T18:34:02.269Z,22.90
2022-08-21T18:36:34.633Z,22.83
2022-08-21T18:39:34.324Z,22.98
2022-08-21T18:41:56.249Z,22.81
2022-08-21T18:44:31.443Z,22.79
2022-08-21T18:47:08.425Z,22.79
2022-08-21T18:49:44.088Z,22.76
2022-08-21T18:52:16.125Z,22.70
2022-08-21T18:54:46.112Z,22.85
2022-08-21T18:57:19.567Z,22.73
2022-08-21T18:59:59.306Z,22.64
2022-08-21T19:02:32.345Z,22.62
2022-08-21T19:05:08.853Z,22.58
2022-08-21T19:07:47.456Z,22.66
2022-08-21T19:10:27.739Z,22.51
2022-08-21T19:13:00.500Z,22.53
2022-08-21T19:15:29.758Z,22.43
2022-08-21T19:18:01.546Z,22.33
2022-08-21T19:20:36.948Z,22.32
2022-08-21T19:23:10.072Z,22.31
2022-08-21T19:25:41.843Z,22.30
2022-08-21T19:28:13.727Z,22.26
2022-08-21T19:30:45.711Z,22.17
2022-08-21T19:33:23.717Z,22.14
2022-08-21T19:35:55.136Z,22.12
2022-08-21T19:38:27.726Z,22.12
2022-08-21T19:40:58.167Z,22.17
2022-08-21T19:43:26.638Z,22.08
2022-08-21T19:45:59.296Z,21.92
2022-08-21T19:48:28.622Z,21.92
2022-08-21T19:50:56.877Z,22.03
2022-08-21T19:53:24.962Z,22.10
2022-08-21T19:55:54.555Z,22.19
2022-08-21T19:58:33.578Z,22.18
2022-08-21T20:01:02.171Z,22.08
2022-08-21T20:03:30.351Z,21.98
2022-08-21T20:05:58.711Z,21.85
2022-08-21T20:08:28.442Z,21.75
2022-08-21T20:11:04.184Z,21.59
2022-08-21T20:13:34.511Z,21.43
2022-08-21T20:16:03.802Z,21.38
2022-08-21T20:18:35.062Z,21.32
2022-08-21T20:21:04.822Z,21.23
2022-08-21T20:23:34.226Z,21.56
2022-08-21T20:26:05.913Z,21.47
2022-08-21T20:28:34.701Z,21.30
2022-08-21T20:31:02.741Z,21.39
2022-08-21T20:33:31.566Z,21.45
2022-08-21T20:36:01.814Z,21.43
2022-08-21T20:38:30.074Z,21.33
2022-08-21T20:40:58.337Z,21.38
2022-08-21T20:43:29.075Z,21.47
2022-08-21T20:45:57.661Z,21.36
2022-08-21T20:48:30.200Z,21.37
2022-08-21T20:51:06.467Z,21.30
2022-08-21T20:53:43.947Z,21.36
2022-08-21T20:56:16.874Z,21.39
2022-08-21T20:58:54.434Z,21.27
2022-08-21T21:01:25.608Z,21.13
2022-08-21T21:04:02.790Z,21.08
2022-08-21T21:06:33.373Z,21.18
2022-08-21T21:09:10.268Z,21.11
2022-08-21T21:11:43.311Z,21.11
2022-08-21T21:14:16.975Z,21.03
2022-08-21T21:16:50.972Z,20.95
2022-08-21T21:19:27.731Z,20.90
2022-08-21T21:22:01.702Z,20.90
2022-08-21T21:24:38.696Z,20.86
2022-08-21T21:27:14.241Z,20.79
2022-08-21T21:29:54.364Z,20.78
2022-08-21T21:32:23.059Z,20.76
2022-08-21T21:34:51.389Z,20.69
2022-08-21T21:37:25.897Z,20.71
2022-08-21T21:40:01.766Z,20.74
2022-08-21T21:42:39.686Z,20.68
2022-08-21T21:45:27.973Z,20.61
2022-08-21T21:48:06.620Z,20.49
2022-08-21T21:50:53.360Z,20.44
2022-08-21T21:53:35.789Z,20.45
2022-08-21T21:56:16.693Z,20.45
2022-08-21T21:59:06.433Z,20.36
2022-08-21T22:01:42.941Z,20.29
2022-08-21T22:04:17.470Z,20.22
2022-08-21T22:06:54.297Z,20.26
2022-08-21T22:09:30.593Z,20.20
2022-08-21T22:12:09.765Z,20.19
2022-08-21T22:14:40.230Z,20.18
2022-08-21T22:17:21.321Z,20.08
2022-08-21T22:19:53.908Z,20.03
2022-08-21T22:22:26.314Z,20.04
2022-08-21T22:24:59.339Z,20.02
2022-08-21T22:27:34.044Z,19.95
2022-08-21T22:30:07.511Z,19.95
2022-08-21T22:32:45.725Z,19.87
2022-08-21T22:35:18.229Z,19.82
2022-08-21T22:37:49.687Z,19.79
2022-08-21T22:40:26.310Z,19.73
2022-08-21T22:43:02.680Z,19.73
2022-08-21T22:45:32.698Z,19.69
2022-08-21T22:51:02.197Z,19.68
2022-08-21T22:53:33.317Z,19.62
2022-08-21T22:56:04.705Z,19.61
2022-08-21T22:58:36.825Z,19.58
2022-08-21T23:01:27.589Z,19.48
2022-08-21T23:04:00.935Z,19.42
2022-08-21T23:06:33.413Z,19.38
2022-08-21T23:09:02.756Z,19.24
2022-08-21T23:11:41.161Z,19.21
2022-08-21T23:14:14.207Z,19.23
2022-08-21T23:16:52.486Z,19.24
2022-08-21T23:19:38.000Z,19.17
2022-08-21T23:22:28.365Z,19.12
2022-08-21T23:25:05.971Z,19.06
2022-08-21T23:27:48.129Z,18.99
2022-08-21T23:30:21.907Z,18.96
2022-08-21T23:33:14.696Z,18.98
2022-08-21T23:36:07.120Z,18.94
2022-08-21T23:38:48.272Z,18.90
2022-08-21T23:41:34.136Z,18.86
2022-08-21T23:44:27.949Z,18.82
2022-08-21T23:47:10.587Z,18.75
2022-08-21T23:49:48.692Z,18.67
2022-08-21T23:52:33.199Z,18.65
2022-08-21T23:55:19.397Z,18.59
2022-08-21T23:57:59.214Z,18.58
